CDT,Max TemperatureF,Mean TemperatureF,Min TemperatureF,Max Dew PointF,MeanDew PointF,Min DewpointF,Max Humidity, Mean Humidity, Min Humidity, Max Sea Level PressureIn, Mean Sea Level PressureIn, Min Sea Level PressureIn, Max VisibilityMiles, Mean VisibilityMiles, Min VisibilityMiles, Max Wind SpeedMPH, Mean Wind SpeedMPH, Max Gust SpeedMPH,PrecipitationIn, CloudCover, Events, WindDirDegrees
2013-8-1,89,76,63,71,64,61,100,72,44,30.21,29.98,29.76,10,8,0,43,7,55,1.21,4,Fog-Rain-Thunderstorm,117
2013-8-2,84,72,60,67,63,58,97,76,55,29.98,29.88,29.78,10,10,10,20,7,26,T,1,,109
2013-8-3,78,71,64,66,63,59,100,82,64,30.26,30.11,29.99,10,8,1,25,10,31,0.00,7,Thunderstorm,112
2013-8-4,79,71,62,68,63,59,93,80,67,30.16,30.06,29.95,10,9,6,18,9,23,0.00,6,,115
2013-8-5,88,74,60,72,66,61,97,76,55,30.01,29.92,29.81,10,8,0,49,7,62,1.95,4,Fog-Rain-Thunderstorm,118
2013-8-6,88,75,62,70,66,60,97,75,53,29.95,29.86,29.79,10,8,0,20,7,24,0.00,4,Fog,92
2013-8-7,79,69,59,66,62,57,93,74,54,30.01,29.97,29.92,10,10,10,14,5,16,T,1,Rain-Thunderstorm,110
2013-8-8,82,71,60,63,59,57,90,68,45,30.06,30.00,29.95,10,10,10,17,4,23,T,5,Thunderstorm,148
2013-8-9,82,68,54,64,57,53,93,67,40,30.22,30.10,30.05,10,7,0,16,4,21,T,1,Fog-Rain-Thunderstorm,88
2013-8-10,84,71,58,60,58,56,100,70,40,30.15,30.09,30.01,10,9,4,20,7,26,0.00,0,,167
2013-8-11,85,74,63,70,64,59,87,69,51,30.07,30.02,29.97,10,10,10,13,6,16,T,1,Rain-Thunderstorm,128
2013-8-12,84,71,58,67,62,57,100,78,55,30.14,30.06,29.99,10,7,0,9,3,13,0.00,3,Fog,102
2013-8-13,79,70,61,64,61,57,100,77,54,30.19,30.10,30.05,10,8,3,18,9,23,0.01,3,Rain-Thunderstorm,108
2013-8-14,80,71,62,63,61,59,93,74,54,30.17,30.08,29.97,10,10,4,15,6,21,T,5,Rain-Thunderstorm,141
2013-8-15,83,72,60,65,60,55,100,74,47,30.11,30.00,29.95,10,9,5,18,5,25,0.16,2,Rain-Thunderstorm,64
2013-8-16,79,71,63,63,62,61,93,76,58,30.17,30.09,30.04,10,6,2,15,8,18,0.00,6,,100
2013-8-17,76,69,62,65,63,61,93,81,69,30.16,30.07,29.99,10,8,3,15,8,22,0.00,7,,143
2013-8-18,78,71,63,65,63,60,93,78,62,30.09,30.02,29.96,10,9,6,17,9,23,0.00,5,,152
2013-8-19,91,75,58,69,63,57,97,69,41,30.04,29.94,29.86,10,8,2,16,5,23,0.00,0,,155
2013-8-20,97,79,61,68,63,60,93,62,30,29.91,29.86,29.79,10,9,5,18,8,25,0.00,0,,169
2013-8-21,93,79,65,69,65,61,87,66,44,29.97,29.86,29.81,10,10,8,28,9,37,0.00,0,,115
2013-8-22,82,74,66,66,64,62,87,73,58,30.12,30.02,29.92,10,10,8,24,9,31,0.00,4,Thunderstorm,59
2013-8-23,89,77,65,68,65,62,100,71,41,30.07,29.96,29.83,10,6,0,21,6,28,0.00,4,Fog,110
2013-8-24,97,80,62,65,59,56,79,52,25,29.91,29.86,29.81,10,10,10,23,12,32,0.00,0,,155
2013-8-25,98,85,72,62,59,56,64,44,24,29.97,29.91,29.87,10,10,10,22,14,31,0.00,0,,175
2013-8-26,101,87,72,64,60,56,64,45,26,29.96,29.90,29.83,10,10,10,21,10,29,0.00,1,,186
2013-8-27,101,83,65,65,59,55,73,49,24,29.91,29.86,29.81,10,10,10,14,5,21,0.00,0,,167
2013-8-28,97,79,60,66,59,54,87,56,24,29.95,29.91,29.86,10,10,10,15,6,20,0.00,0,,132
2013-8-29,102,80,58,69,62,51,93,56,18,29.96,29.91,29.85,10,10,8,9,3,13,0.00,0,,115
2013-8-30,97,81,65,68,64,60,87,59,30,30.08,29.94,29.84,10,10,9,26,7,35,0.03,2,Rain-Thunderstorm,87
2013-8-31,94,77,60,69,64,59,97,68,39,30.10,29.89,29.77,10,10,7,20,5,24,0.15,1,Rain-Thunderstorm,231